createdAt,value
2019-02-16T00:01:44.162Z,93.98
2019-02-16T00:04:12.957Z,94.59
2019-02-16T00:06:41.917Z,95.22
2019-02-16T00:09:10.724Z,95.57
2019-02-16T00:11:39.502Z,95.72
2019-02-16T00:14:08.289Z,95.97
2019-02-16T00:16:37.069Z,96.31
2019-02-16T00:19:05.872Z,96.61
2019-02-16T00:21:34.657Z,96.12
2019-02-16T00:24:03.463Z,96.08
2019-02-16T00:26:32.308Z,96.47
2019-02-16T00:29:01.755Z,96.49
2019-02-16T00:31:30.618Z,96.34
2019-02-16T00:33:59.478Z,96.36
2019-02-16T00:36:28.268Z,96.72
2019-02-16T00:38:57.300Z,96.80
2019-02-16T00:41:26.153Z,96.78
2019-02-16T00:43:54.950Z,96.90
2019-02-16T00:46:23.715Z,96.96
2019-02-16T00:48:52.493Z,97.06
2019-02-16T00:51:21.364Z,97.38
2019-02-16T00:53:50.174Z,97.73
2019-02-16T00:56:19.030Z,97.70
2019-02-16T00:58:48.098Z,97.03
2019-02-16T01:01:16.892Z,96.76
2019-02-16T01:03:45.693Z,96.22
2019-02-16T01:06:14.466Z,95.28
2019-02-16T01:08:43.344Z,93.33
2019-02-16T01:11:12.135Z,92.63
2019-02-16T01:13:40.917Z,92.07
2019-02-16T01:16:09.694Z,91.56
2019-02-16T01:18:38.557Z,91.50
2019-02-16T01:21:07.408Z,92.00
2019-02-16T01:23:36.196Z,93.03
2019-02-16T01:26:04.973Z,93.16
2019-02-16T01:28:33.957Z,93.18
2019-02-16T01:31:02.731Z,94.15
2019-02-16T01:33:31.651Z,94.19
2019-02-16T01:36:00.505Z,93.88
2019-02-16T01:38:29.455Z,93.16
2019-02-16T01:40:58.720Z,93.33
2019-02-16T01:43:27.531Z,93.50
2019-02-16T01:45:56.313Z,93.76
2019-02-16T01:48:25.224Z,94.11
2019-02-16T01:50:53.998Z,95.23
2019-02-16T01:53:22.795Z,95.88
2019-02-16T01:55:51.573Z,95.86
2019-02-16T01:58:20.363Z,95.63
2019-02-16T02:00:49.258Z,95.82
2019-02-16T02:03:18.058Z,96.60
2019-02-16T02:05:46.840Z,96.79
2019-02-16T02:08:15.618Z,97.71
2019-02-16T02:10:44.404Z,98.39
2019-02-16T02:13:13.195Z,98.65
2019-02-16T02:15:41.967Z,98.48
2019-02-16T02:18:10.750Z,98.42
2019-02-16T02:20:39.599Z,98.64
2019-02-16T02:23:08.388Z,98.58
2019-02-16T02:25:37.159Z,98.38
2019-02-16T02:28:06.350Z,98.42
2019-02-16T02:30:35.155Z,98.33
2019-02-16T02:33:03.969Z,98.99
2019-02-16T02:35:32.793Z,99.93
2019-02-16T02:38:01.583Z,99.93
2019-02-16T02:40:30.481Z,99.88
2019-02-16T02:42:59.260Z,99.70
2019-02-16T02:45:28.123Z,99.61
2019-02-16T02:47:56.915Z,99.44
2019-02-16T02:50:25.719Z,98.91
2019-02-16T02:52:56.555Z,99.24
2019-02-16T02:55:25.019Z,100.00
2019-02-16T02:57:53.783Z,100.00
2019-02-16T03:00:22.651Z,100.00
2019-02-16T03:02:51.435Z,100.00
2019-02-16T03:05:20.238Z,100.00
2019-02-16T03:07:49.039Z,100.00
2019-02-16T03:10:17.876Z,100.00
2019-02-16T03:12:46.681Z,100.00
2019-02-16T03:15:15.588Z,100.00
2019-02-16T03:17:44.363Z,100.00
2019-02-16T03:20:13.451Z,100.00
2019-02-16T03:23:22.299Z,100.00
2019-02-16T03:26:16.992Z,100.00
2019-02-16T03:29:13.038Z,100.00
2019-02-16T03:32:17.921Z,100.00
2019-02-16T03:35:20.461Z,100.00
2019-02-16T03:38:27.160Z,100.00
2019-02-16T03:40:55.961Z,100.00
2019-02-16T03:43:24.735Z,100.00
2019-02-16T03:45:53.509Z,100.00
2019-02-16T03:48:22.600Z,100.00
2019-02-16T03:50:51.399Z,100.00
2019-02-16T03:53:20.176Z,100.00
2019-02-16T03:55:48.977Z,100.00
2019-02-16T03:58:17.753Z,100.00
2019-02-16T04:00:46.548Z,100.00
2019-02-16T04:03:15.340Z,100.00
2019-02-16T04:05:44.132Z,100.00
2019-02-16T04:08:12.906Z,100.00
2019-02-16T04:10:41.727Z,100.00
2019-02-16T04:13:10.621Z,100.00
2019-02-16T04:15:39.434Z,100.00
2019-02-16T04:18:08.210Z,100.00
2019-02-16T04:20:37.067Z,100.00
2019-02-16T04:23:05.856Z,100.00
2019-02-16T04:25:34.648Z,100.00
2019-02-16T04:28:03.431Z,100.00
2019-02-16T04:30:32.308Z,100.00
2019-02-16T04:33:01.116Z,100.00
2019-02-16T04:35:29.901Z,100.00
2019-02-16T04:37:58.687Z,100.00
2019-02-16T04:40:27.486Z,100.00
2019-02-16T04:42:56.290Z,100.00
2019-02-16T04:45:25.075Z,100.00
2019-02-16T04:47:53.876Z,100.00
2019-02-16T04:50:22.670Z,100.00
2019-02-16T04:52:51.447Z,100.00
2019-02-16T04:55:20.253Z,100.00
2019-02-16T04:57:49.113Z,100.00
2019-02-16T05:00:17.973Z,100.00
2019-02-16T05:02:46.746Z,100.00
2019-02-16T05:05:15.610Z,100.00
2019-02-16T05:07:44.472Z,100.00
2019-02-16T05:10:13.432Z,100.00
2019-02-16T05:12:42.225Z,100.00
2019-02-16T05:15:11.098Z,100.00
2019-02-16T05:17:39.884Z,100.00
2019-02-16T05:20:08.835Z,100.00
2019-02-16T05:22:44.291Z,100.00
2019-02-16T05:25:08.446Z,100.00
2019-02-16T05:27:37.233Z,100.00
2019-02-16T05:30:06.542Z,100.00
2019-02-16T05:32:35.407Z,100.00
2019-02-16T05:35:04.326Z,100.00
2019-02-16T05:37:33.213Z,100.00
2019-02-16T05:40:01.990Z,100.00
2019-02-16T05:42:30.799Z,100.00
2019-02-16T05:44:59.605Z,100.00
2019-02-16T05:47:28.414Z,100.00
2019-02-16T05:49:57.201Z,100.00
2019-02-16T05:52:26.018Z,100.00
2019-02-16T05:54:54.897Z,100.00
2019-02-16T05:57:23.631Z,100.00
2019-02-16T05:59:52.423Z,100.00
2019-02-16T06:02:21.225Z,100.00
2019-02-16T06:04:50.075Z,100.00
2019-02-16T06:07:19.044Z,100.00
2019-02-16T06:09:48.246Z,100.00
2019-02-16T06:12:17.121Z,100.00
2019-02-16T06:14:46.477Z,100.00
2019-02-16T06:17:15.259Z,100.00
2019-02-16T06:19:44.056Z,100.00
2019-02-16T06:22:12.871Z,100.00
2019-02-16T06:24:41.713Z,100.00
2019-02-16T06:27:10.522Z,100.00
2019-02-16T06:29:39.297Z,100.00
2019-02-16T06:32:08.165Z,100.00
2019-02-16T06:34:36.951Z,100.00
2019-02-16T06:37:21.206Z,100.00
2019-02-16T06:39:50.830Z,100.00
2019-02-16T06:42:19.686Z,100.00
2019-02-16T06:44:48.477Z,100.00
2019-02-16T06:47:17.455Z,100.00
2019-02-16T06:49:46.315Z,100.00
2019-02-16T06:52:15.125Z,100.00
2019-02-16T06:54:43.919Z,100.00
2019-02-16T06:57:27.091Z,100.00
2019-02-16T06:59:55.894Z,100.00
2019-02-16T07:02:25.886Z,100.00
2019-02-16T07:04:54.681Z,100.00
2019-02-16T07:07:23.567Z,100.00
2019-02-16T07:09:52.481Z,100.00
2019-02-16T07:12:21.269Z,100.00
2019-02-16T07:14:50.200Z,100.00
2019-02-16T07:17:28.459Z,100.00
2019-02-16T07:19:59.008Z,100.00
2019-02-16T07:22:27.803Z,100.00
2019-02-16T07:24:56.667Z,100.00
2019-02-16T07:27:25.462Z,100.00
2019-02-16T07:29:54.271Z,100.00
2019-02-16T07:32:23.054Z,100.00
2019-02-16T07:34:51.948Z,100.00
2019-02-16T07:37:20.782Z,100.00
2019-02-16T07:39:49.616Z,100.00
2019-02-16T07:42:18.987Z,100.00
2019-02-16T07:44:55.884Z,100.00
2019-02-16T07:47:51.140Z,100.00
2019-02-16T07:50:33.251Z,100.00
2019-02-16T07:53:12.000Z,100.00
2019-02-16T07:55:48.275Z,100.00
2019-02-16T07:58:25.975Z,100.00
2019-02-16T08:01:12.679Z,100.00
2019-02-16T08:03:49.587Z,100.00
2019-02-16T08:06:43.375Z,100.00
2019-02-16T08:09:22.324Z,100.00
2019-02-16T08:12:09.045Z,100.00
2019-02-16T08:14:58.965Z,100.00
2019-02-16T08:17:36.246Z,100.00
2019-02-16T08:20:21.986Z,100.00
2019-02-16T08:23:02.789Z,100.00
2019-02-16T08:25:40.115Z,100.00
2019-02-16T08:28:14.245Z,100.00
2019-02-16T08:30:50.815Z,100.00
2019-02-16T08:33:42.370Z,100.00
2019-02-16T08:36:18.421Z,99.63
2019-02-16T08:38:57.128Z,98.78
2019-02-16T08:41:38.347Z,96.85
2019-02-16T08:44:35.402Z,96.18
2019-02-16T08:47:11.792Z,95.11
2019-02-16T08:50:08.878Z,94.57
2019-02-16T08:52:55.613Z,93.59
2019-02-16T08:55:30.638Z,92.47
2019-02-16T08:58:07.927Z,90.64
2019-02-16T09:00:58.927Z,87.57
2019-02-16T09:03:37.081Z,85.94
2019-02-16T09:06:28.141Z,82.41
2019-02-16T09:09:05.751Z,83.16
2019-02-16T09:11:46.593Z,85.81
2019-02-16T09:14:33.003Z,84.74
2019-02-16T09:17:15.825Z,85.98
2019-02-16T09:19:53.238Z,86.81
2019-02-16T09:22:30.238Z,86.91
2019-02-16T09:25:23.310Z,86.88
2019-02-16T09:28:01.849Z,88.33
2019-02-16T09:30:52.766Z,89.06
2019-02-16T09:33:31.705Z,89.03
2019-02-16T09:36:08.598Z,88.61
2019-02-16T09:38:59.743Z,88.30
2019-02-16T09:41:48.778Z,87.56
2019-02-16T09:44:34.814Z,85.95
2019-02-16T09:47:15.978Z,83.61
2019-02-16T09:50:03.852Z,83.16
2019-02-16T09:52:50.750Z,82.34
2019-02-16T09:55:25.373Z,83.90
2019-02-16T09:58:22.492Z,83.62
2019-02-16T10:01:00.801Z,84.16
2019-02-16T10:03:44.844Z,83.79
2019-02-16T10:06:21.133Z,83.54
2019-02-16T10:09:08.978Z,83.01
2019-02-16T10:11:54.274Z,83.06
2019-02-16T10:15:00.556Z,81.96
2019-02-16T10:17:45.120Z,81.78
2019-02-16T10:20:31.406Z,81.44
2019-02-16T10:23:19.224Z,81.30
2019-02-16T10:26:02.936Z,78.53
2019-02-16T10:28:48.314Z,77.99
2019-02-16T10:31:31.270Z,78.46
2019-02-16T10:34:24.858Z,77.12
2019-02-16T10:37:14.432Z,76.99
2019-02-16T10:39:55.008Z,75.30
2019-02-16T10:42:49.313Z,74.37
2019-02-16T10:45:35.998Z,74.48
2019-02-16T10:48:12.914Z,75.54
2019-02-16T10:50:56.787Z,74.85
2019-02-16T10:53:36.329Z,75.08
2019-02-16T10:56:11.371Z,74.58
2019-02-16T10:58:53.494Z,73.88
2019-02-16T11:01:41.390Z,73.39
2019-02-16T11:04:16.376Z,73.57
2019-02-16T11:06:58.507Z,73.52
2019-02-16T11:09:42.135Z,73.19
2019-02-16T11:12:36.078Z,71.80
2019-02-16T11:15:31.222Z,72.34
2019-02-16T11:18:22.048Z,71.03
2019-02-16T11:21:09.837Z,71.42
2019-02-16T11:24:12.980Z,69.81
2019-02-16T11:26:50.549Z,70.28
2019-02-16T11:29:37.515Z,70.03
2019-02-16T11:32:26.649Z,69.43
2019-02-16T11:35:20.442Z,69.25
2019-02-16T11:37:58.157Z,68.71
2019-02-16T11:40:44.897Z,68.17
2019-02-16T11:43:41.605Z,68.41
2019-02-16T11:46:19.437Z,68.00
2019-02-16T11:49:09.451Z,67.94
2019-02-16T11:52:01.394Z,66.53
2019-02-16T11:54:45.644Z,66.98
2019-02-16T11:57:34.040Z,67.30
2019-02-16T12:00:21.205Z,65.89
2019-02-16T12:03:02.435Z,63.92
2019-02-16T12:06:02.485Z,65.09
2019-02-16T12:08:44.997Z,63.32
2019-02-16T12:11:31.790Z,62.55
2019-02-16T12:14:18.756Z,61.28
2019-02-16T12:17:18.857Z,61.27
2019-02-16T12:19:54.632Z,61.71
2019-02-16T12:22:31.796Z,60.57
2019-02-16T12:25:10.781Z,59.39
2019-02-16T12:27:48.127Z,59.39
2019-02-16T12:30:37.668Z,59.08
2019-02-16T12:33:31.778Z,58.55
2019-02-16T12:36:11.220Z,58.62
2019-02-16T12:39:04.765Z,58.36
2019-02-16T12:41:54.608Z,58.14
2019-02-16T12:44:40.199Z,57.37
2019-02-16T12:47:19.738Z,58.06
2019-02-16T12:50:11.488Z,57.98
2019-02-16T12:53:17.940Z,57.74
2019-02-16T12:56:05.726Z,57.82
2019-02-16T12:58:39.336Z,57.49
2019-02-16T13:01:30.039Z,57.22
2019-02-16T13:04:13.297Z,55.84
2019-02-16T13:07:00.925Z,55.59
2019-02-16T13:09:40.395Z,54.95
2019-02-16T13:12:17.185Z,53.43
2019-02-16T13:14:58.002Z,53.16
2019-02-16T13:17:44.379Z,53.52
2019-02-16T13:20:41.686Z,52.34
2019-02-16T13:23:30.001Z,53.61
2019-02-16T13:26:21.641Z,51.93
2019-02-16T13:29:08.159Z,49.60
2019-02-16T13:31:54.886Z,47.80
2019-02-16T13:34:36.583Z,46.51
2019-02-16T13:37:11.831Z,47.22
2019-02-16T13:39:58.337Z,47.73
2019-02-16T13:42:41.889Z,44.89
2019-02-16T13:45:28.296Z,39.50
2019-02-16T13:48:14.307Z,45.31
2019-02-16T13:51:02.221Z,43.89
2019-02-16T13:53:48.809Z,40.07
2019-02-16T13:56:45.855Z,38.78
2019-02-16T13:59:26.580Z,39.26
2019-02-16T14:02:02.091Z,36.35
2019-02-16T14:04:35.705Z,37.95
2019-02-16T14:07:21.290Z,37.95
2019-02-16T14:09:56.560Z,38.98
2019-02-16T14:12:39.270Z,37.34
2019-02-16T14:15:20.682Z,33.15
2019-02-16T14:17:51.550Z,36.14
2019-02-16T14:20:20.108Z,35.46
2019-02-16T14:22:48.896Z,36.66
2019-02-16T14:25:42.713Z,35.39
2019-02-16T14:28:07.293Z,35.84
2019-02-16T14:30:36.191Z,37.77
2019-02-16T14:33:05.066Z,36.94
2019-02-16T14:35:34.031Z,36.45
2019-02-16T14:38:07.789Z,37.20
2019-02-16T14:40:36.604Z,37.76
2019-02-16T14:43:05.449Z,37.10
2019-02-16T14:45:37.680Z,37.65
2019-02-16T14:48:06.594Z,39.41
2019-02-16T14:50:35.466Z,41.03
2019-02-16T14:53:04.269Z,42.79
2019-02-16T14:55:33.179Z,42.25
2019-02-16T14:58:02.833Z,41.88
2019-02-16T15:00:31.732Z,41.97
2019-02-16T15:03:00.638Z,42.59
2019-02-16T15:05:29.428Z,43.65
2019-02-16T15:07:58.205Z,43.38
2019-02-16T15:10:27.004Z,43.11
2019-02-16T15:12:56.020Z,42.69
2019-02-16T15:15:24.877Z,42.99
2019-02-16T15:17:53.681Z,42.46
2019-02-16T15:20:22.481Z,43.17
2019-02-16T15:22:51.272Z,43.72
2019-02-16T15:25:20.035Z,43.96
2019-02-16T15:27:48.828Z,44.77
2019-02-16T15:30:18.303Z,44.90
2019-02-16T15:32:47.091Z,44.49
2019-02-16T15:35:16.022Z,42.66
2019-02-16T15:37:44.891Z,43.16
2019-02-16T15:40:13.751Z,43.76
2019-02-16T15:42:42.688Z,45.18
2019-02-16T15:45:13.051Z,46.14
2019-02-16T15:47:41.934Z,46.28
2019-02-16T15:50:12.080Z,45.85
2019-02-16T15:52:41.150Z,44.89
2019-02-16T15:55:10.752Z,44.88
2019-02-16T15:57:39.631Z,45.30
2019-02-16T16:00:12.773Z,45.59
2019-02-16T16:02:41.747Z,45.25
2019-02-16T16:05:10.606Z,45.18
2019-02-16T16:07:41.512Z,45.45
2019-02-16T16:10:21.385Z,45.25
2019-02-16T16:13:03.554Z,45.25
2019-02-16T16:15:45.022Z,45.09
2019-02-16T16:18:29.810Z,44.95
2019-02-16T16:21:12.728Z,44.65
2019-02-16T16:24:03.553Z,44.69
2019-02-16T16:26:42.058Z,45.22
2019-02-16T16:29:29.866Z,45.64
2019-02-16T16:32:17.782Z,45.73
2019-02-16T16:35:04.761Z,46.71
2019-02-16T16:38:04.738Z,47.47
2019-02-16T16:40:43.167Z,47.63
2019-02-16T16:43:28.468Z,47.71
2019-02-16T16:46:15.393Z,48.37
2019-02-16T16:49:01.869Z,48.86
2019-02-16T16:51:40.135Z,49.37
2019-02-16T16:54:28.497Z,49.87
2019-02-16T16:57:14.938Z,50.67
2019-02-16T17:00:09.045Z,51.56
2019-02-16T17:03:06.225Z,51.95
2019-02-16T17:06:00.360Z,52.82
2019-02-16T17:08:38.186Z,53.80
2019-02-16T17:11:32.424Z,54.55
2019-02-16T17:14:07.537Z,54.85
2019-02-16T17:17:01.358Z,55.22
2019-02-16T17:19:59.275Z,56.10
2019-02-16T17:22:45.709Z,56.07
2019-02-16T17:25:39.767Z,57.08
2019-02-16T17:28:31.040Z,56.10
2019-02-16T17:31:15.309Z,55.09
2019-02-16T17:34:03.113Z,54.88
2019-02-16T17:36:50.903Z,54.10
2019-02-16T17:39:47.817Z,53.83
2019-02-16T17:42:34.280Z,52.32
2019-02-16T17:45:23.660Z,53.18
2019-02-16T17:48:26.948Z,55.92
2019-02-16T17:51:12.171Z,57.42
2019-02-16T17:53:53.555Z,60.33
2019-02-16T17:56:48.046Z,62.07
2019-02-16T17:59:25.156Z,63.55
2019-02-16T18:02:08.396Z,64.33
2019-02-16T18:04:46.329Z,65.76
2019-02-16T18:07:52.360Z,66.50
2019-02-16T18:10:41.053Z,67.21
2019-02-16T18:13:28.201Z,67.68
2019-02-16T18:16:02.943Z,67.39
2019-02-16T18:18:36.324Z,67.87
2019-02-16T18:21:23.924Z,67.28
2019-02-16T18:24:00.975Z,67.50
2019-02-16T18:26:56.660Z,67.17
2019-02-16T18:29:38.217Z,67.65
2019-02-16T18:32:31.815Z,67.34
2019-02-16T18:35:23.802Z,67.88
2019-02-16T18:38:10.262Z,68.61
2019-02-16T18:40:55.799Z,69.29
2019-02-16T18:43:55.945Z,69.85
2019-02-16T18:46:43.818Z,70.04
2019-02-16T18:49:34.547Z,70.09
2019-02-16T18:52:16.480Z,70.20
2019-02-16T18:55:10.819Z,69.91
2019-02-16T18:57:57.886Z,70.02
2019-02-16T19:00:58.130Z,70.04
2019-02-16T19:03:34.004Z,70.58
2019-02-16T19:06:31.997Z,69.44
2019-02-16T19:09:13.797Z,69.29
2019-02-16T19:11:50.680Z,70.23
2019-02-16T19:14:32.734Z,71.02
2019-02-16T19:17:13.285Z,72.48
2019-02-16T19:20:01.074Z,73.05
2019-02-16T19:22:47.602Z,74.55
2019-02-16T19:25:28.941Z,76.68
2019-02-16T19:28:19.928Z,77.58
2019-02-16T19:31:07.778Z,78.43
2019-02-16T19:33:55.779Z,78.37
2019-02-16T19:36:30.099Z,78.69
2019-02-16T19:39:20.392Z,79.07
2019-02-16T19:42:14.066Z,79.13
2019-02-16T19:45:14.217Z,79.50
2019-02-16T19:47:53.980Z,79.59
2019-02-16T19:50:53.711Z,80.94
2019-02-16T19:53:40.259Z,80.94
2019-02-16T19:56:21.969Z,81.61
2019-02-16T19:59:08.646Z,82.09
2019-02-16T20:02:02.375Z,82.28
2019-02-16T20:04:57.011Z,83.36
2019-02-16T20:07:37.450Z,83.96
2019-02-16T20:10:28.760Z,85.18
2019-02-16T20:13:15.322Z,85.60
2019-02-16T20:16:01.833Z,86.22
2019-02-16T20:18:49.610Z,86.62
2019-02-16T20:21:44.455Z,87.72
2019-02-16T20:24:44.364Z,88.98
2019-02-16T20:27:37.970Z,89.61
2019-02-16T20:30:28.170Z,89.04
2019-02-16T20:33:02.294Z,87.51
2019-02-16T20:35:50.343Z,86.34
2019-02-16T20:38:46.997Z,85.01
2019-02-16T20:41:34.788Z,82.83
2019-02-16T20:44:18.290Z,81.68
2019-02-16T20:47:09.188Z,81.02
2019-02-16T20:50:06.243Z,81.02
2019-02-16T20:52:52.946Z,80.99
2019-02-16T20:55:49.894Z,80.34
2019-02-16T20:58:47.679Z,80.45
2019-02-16T21:01:35.449Z,80.73
2019-02-16T21:04:23.355Z,80.96
2019-02-16T21:07:00.859Z,80.96
2019-02-16T21:10:03.875Z,80.39
2019-02-16T21:12:54.775Z,80.53
2019-02-16T21:15:43.334Z,81.12
2019-02-16T21:18:32.567Z,80.16
2019-02-16T21:21:38.547Z,80.57
2019-02-16T21:24:28.204Z,81.21
2019-02-16T21:27:25.377Z,81.08
2019-02-16T21:30:11.559Z,81.00
2019-02-16T21:32:48.025Z,81.49
2019-02-16T21:35:30.662Z,82.31
2019-02-16T21:38:06.523Z,82.78
2019-02-16T21:40:54.297Z,82.93
2019-02-16T21:43:37.501Z,83.66
2019-02-16T21:46:24.083Z,84.21
2019-02-16T21:49:02.170Z,83.70
2019-02-16T21:51:50.001Z,83.42
2019-02-16T21:54:34.688Z,84.61
2019-02-16T21:57:11.668Z,85.07
2019-02-16T22:02:58.435Z,83.71
2019-02-16T22:05:53.718Z,83.19
2019-02-16T22:08:47.757Z,83.51
2019-02-16T22:11:42.482Z,83.94
2019-02-16T22:14:11.341Z,84.59
2019-02-16T22:16:40.177Z,84.91
2019-02-16T22:19:08.986Z,85.63
2019-02-16T22:21:37.846Z,85.42
2019-02-16T22:24:06.651Z,85.52
2019-02-16T22:26:35.439Z,84.97
2019-02-16T22:29:04.303Z,84.73
2019-02-16T22:31:33.193Z,85.16
2019-02-16T22:34:01.986Z,84.91
2019-02-16T22:36:30.764Z,85.39
2019-02-16T22:38:59.569Z,85.99
2019-02-16T22:41:28.335Z,86.00
2019-02-16T22:43:57.120Z,86.21
2019-02-16T22:46:25.922Z,86.06
2019-02-16T22:48:54.775Z,86.36
2019-02-16T22:51:23.571Z,86.27
2019-02-16T22:53:53.075Z,86.97
2019-02-16T22:56:21.876Z,87.81
2019-02-16T22:58:50.651Z,88.49
2019-02-16T23:01:19.794Z,89.83
2019-02-16T23:03:48.962Z,90.95
2019-02-16T23:06:17.753Z,91.91
2019-02-16T23:08:46.550Z,92.52
2019-02-16T23:11:15.509Z,93.02
2019-02-16T23:13:44.304Z,93.56
2019-02-16T23:16:13.248Z,93.77
2019-02-16T23:18:42.036Z,93.97
2019-02-16T23:21:10.910Z,94.35
2019-02-16T23:23:39.781Z,94.30
2019-02-16T23:26:08.726Z,94.22
2019-02-16T23:28:39.241Z,94.69
2019-02-16T23:31:08.324Z,95.96
2019-02-16T23:33:37.107Z,95.91
2019-02-16T23:36:06.129Z,95.21
2019-02-16T23:38:34.908Z,94.83
2019-02-16T23:41:06.234Z,94.03
2019-02-16T23:43:34.451Z,94.23
2019-02-16T23:46:03.908Z,94.19
2019-02-16T23:48:32.722Z,96.18
2019-02-16T23:51:01.524Z,96.88
2019-02-16T23:53:30.384Z,97.15
2019-02-16T23:55:59.189Z,97.05
2019-02-16T23:58:27.987Z,96.94
